x

West Santa Barbara 38 Nm West Of Santa Barbara, Ca (46054) Wave Buoy

4:50pm - Fri 1st Aug 2014 All times are PDT. -7 hours from GMT.

  • Sig Wave height 3.6ft
  • Swell Direction
  • Peak Period 7s
  • Average Period 5s
  • Wind
    16mph, 20mph gusts
  • Sea Temp 62°f
  • 空気 Temp 63°f
  • Sea Pressure 1011.4mb
  • West Santa Barbara  38 Nm West Of Santa Barbara, Ca
  • West Santa Barbara  38 Nm West Of Santa Barbara, Ca

More Historic Weather Station data

Upgrade to MSW Pro to gain access to the past 30 days of data for over 8000 Wavebouys and Weather Stations around the globe.

Join Pro

Comparision Forecast

View Surf forecast
   
Fri 08/01 4:50pm 3.5ft 7s 5s 16 20 mph 1011.4mb 62f 63f
3:50pm 3.5ft 7s 5s 18 22 mph 1011.8mb 62f 63f
2:50pm 3.5ft 7s 6s 16 18 mph 1012.6mb 63f 63f
1:50pm 3.5ft 7s 6s 11 13 mph 1013.2mb 62f 62f
12:50pm 3.5ft 8s 6s 9 11 mph 1013.8mb 62f 61f
11:50am 3.5ft 8s 6s 11 13 mph 1013.9mb 62f 60f
10:50am 3.5ft 7s 6s 11
mph
1013.8mb 61f 60f
9:50am 3.5ft 8s 5s 13 16 mph 1013.4mb 60f 59f
8:50am 3.5ft 6s 5s 16 18 mph 1013.2mb 60f 59f
7:50am 3.5ft 6s 5s 16 18 mph 1012.8mb 60f 59f
6:50am 3.5ft 7s 5s 16 18 mph 1012.7mb 60f 59f
5:50am 4ft 5s 5s 13 18 mph 1012.4mb 60f 59f
4:50am 4.5ft 8s 5s 18 20 mph 1011.9mb 60f 59f
3:50am 4.5ft 5s 5s 18 20 mph 1011.7mb 60f 60f
2:50am 5.5ft 6s 5s 18 22 mph 1011.9mb 60f 60f
1:50am 5ft 5s 5s 18 22 mph 1011.8mb 60f 60f
12:50am 5ft 8s 5s 22 27 mph 1011.7mb 60f 61f
Thu 07/31 11:50pm 5ft 6s 5s 20 25 mph 1011.8mb 60f 61f
10:50pm 5ft 8s 5s 20 25 mph 1012.2mb 60f 61f
9:50pm 5ft 5s 5s 22 25 mph 1012mb 61f 61f
8:50pm 4.5ft 8s 5s 20 27 mph 1011.9mb 61f 61f
7:50pm 4.5ft 5s 5s 22 27 mph 1011.4mb 61f 62f
6:50pm 4.5ft 4s 5s 22 29 mph 1011.2mb 61f 62f
5:50pm 4.5ft 8s 5s 22 27 mph 1011.5mb 62f 62f
4:50pm 4.5ft 8s 5s 22 25 mph 1011.8mb 62f 62f
3:50pm 4.5ft 8s 5s 22 29 mph 1012.1mb 61f 62f
2:50pm 4ft 8s 5s 20 25 mph 1012.5mb 61f 62f
1:50pm 4.5ft 8s 5s 20 25 mph 1013.3mb 61f 62f
12:50pm 4.5ft 8s 5s 20 25 mph 1013.8mb 61f 61f
11:50am 4.5ft 8s 5s 20 22 mph 1013.8mb 61f 60f
10:50am 5ft 8s 5s 20 22 mph 1013.7mb 61f 60f
9:50am 5ft 8s 5s 20 25 mph 1013.5mb 61f 60f
8:50am 5ft 9s 5s 22 27 mph 1013.4mb 61f 60f
7:50am 5ft 8s 5s 22 27 mph 1013.1mb 61f 60f
5:50am 5ft 5s 5s 25 31 mph 1012.7mb 61f 60f
4:50am 5.5ft 8s 5s 22 27 mph 1012.9mb 61f 60f
3:50am 5ft 5s 5s 25 31 mph 1012.8mb 61f 60f
2:50am 5ft 5s 5s 22 29 mph 1012.9mb 61f 60f
1:50am 5.5ft 8s 5s 27 31 mph 1013.2mb 61f 60f
12:50am 5.5ft 8s 5s 25 29 mph 1013.3mb 61f 61f
Wed 07/30 11:50pm 5ft 5s 5s 22 25 mph 1013.5mb 61f 61f
10:50pm 5ft 8s 5s 27 31 mph 1013.5mb 60f 61f
9:50pm 4.5ft 8s 5s 25 29 mph 1013.5mb 60f 61f
8:50pm 4.5ft 8s 5s 25 29 mph 1013.2mb 59f 61f
7:50pm 4.5ft 5s 4s 25 29 mph 1012.7mb 59f 61f
6:50pm 5ft 4s 5s 27 34 mph 1012.5mb 60f 61f
5:50pm 5ft 5s 5s 27 31 mph 1012.5mb 61f 61f
4:50pm 4.5ft 4s 4s 29 34 mph 1012.4mb 62f 62f
3:50pm 4.5ft 8s 5s 25 29 mph 1013.1mb 62f 62f
2:50pm 4.5ft 5s 5s 27 31 mph 1013.6mb 62f 62f
1:50pm 4.5ft 8s 5s 22 27 mph 1014.1mb 61f 61f
12:50pm 4ft 8s 5s 22 27 mph 1014.5mb 61f 61f
11:50am 4.5ft 5s 5s 20 25 mph 1014.4mb 61f 61f
10:50am 4.5ft 8s 5s 20 22 mph 1014.7mb 61f 61f
9:50am 4.5ft 5s 5s 20 25 mph 1014.8mb 61f 60f
8:50am 4.5ft 5s 5s 18 20 mph 1014.8mb 61f 60f
7:50am 4.5ft 4s 5s 22 25 mph 1014mb 61f 60f
6:50am 5ft 5s 5s 20 27 mph 1013.9mb 61f 61f
5:50am 4.5ft 5s 5s 22 27 mph 1013.5mb 61f 60f
4:50am 5ft 5s 5s 25 27 mph 1013.3mb 61f 61f
3:50am 4.5ft 5s 5s 22 27 mph 1013.1mb 61f 60f
2:50am 4.5ft 5s 5s 22 27 mph 1013.4mb 61f 61f
1:50am 4.5ft 4s 5s 25 29 mph 1013.3mb 61f 61f
12:50am 4.5ft 5s 5s 20 22 mph 1013.9mb 61f 62f
Tue 07/29 11:50pm 4.5ft 5s 5s 22 25 mph 1014.3mb 61f 62f
10:50pm 4.5ft 4s 5s 20 25 mph 1014.4mb 61f 62f
9:50pm 4.5ft 8s 5s 20 25 mph 1014.4mb 61f 62f
8:50pm 4ft 9s 5s 22 25 mph 1014.2mb 61f 63f
7:50pm 4.5ft 4s 4s 22 27 mph 1013.8mb 61f 63f
6:50pm 4.5ft 4s 4s 25 27 mph 1013.9mb 62f 63f
5:50pm 4ft 5s 4s 22 27 mph 1014.1mb 62f 63f
4:50pm 4ft 9s 4s 25 29 mph 1014mb 62f 63f
3:50pm 4ft 8s 4s 25 29 mph 1014.6mb 62f 62f
2:50pm 4ft 9s 4s 22 27 mph 1015.2mb 63f 63f
1:50pm 3.5ft 8s 5s 20 25 mph 1016mb 63f 63f
12:50pm 3.5ft 8s 5s 16 20 mph 1016.6mb 62f 62f
11:50am 3.5ft 9s 5s 16 18 mph 1017.2mb 62f 62f
10:50am 3.5ft 8s 5s 13 18 mph 1017.6mb 62f 62f
9:50am 3.5ft 8s 5s 13 16 mph 1017.3mb 61f 61f
8:50am 4ft 8s 5s 13 18 mph 1017.2mb 62f 61f
7:50am 4.5ft 8s 5s 18 20 mph 1016.8mb 62f 60f
6:50am 4ft 8s 5s 18
mph
1016.4mb 62f 61f
5:50am 4.5ft 8s 5s 18 20 mph 1015.8mb 62f 61f
4:50am 4ft 9s 5s 18 22 mph 1015.5mb 62f 62f
3:50am 4ft 9s 5s 18 22 mph 1014.9mb 62f 63f
2:50am 4ft 8s 5s 20 22 mph 1015.2mb 63f 63f
1:50am 4ft 8s 5s 22 25 mph 1015.3mb 63f 62f